Aérodrome :
LOGIN :

S'inscrire | Disclaimer

   EN    FR    IT 

 










Légende :    VFR   VFR Marginal   IFR   IFR Intensif   IFR Très Intensif
Visi : 
Plafond : 
>= 8 km
>= 3000ft
5 à 8 km
1000 à 3000 ft
1500m à 5 km
500 à 1000 ft
800 à 1500m
200 à 500 ft
< 800m
< 200 ft
Symboles :   Orages  Brouillard  Fortes neiges  Fortes précipitations  Vent > 20 kt
SIGMETs :   Divers  Orages  Givrage  Turbulence  Onde Orograph.  Cendres Volcan.






- Altitude de l'aérodrome : 194 ft
- Code IATA : ANE


LFJR - Angers Marcé

DERNIER METAR :
  • 190030Z AUTO 27001KT CAVOK 18/17 Q1018

METARs EXPIRÉS :
  • 190000Z AUTO 00000KT CAVOK 19/16 Q1018
  • 182330Z AUTO 00000KT CAVOK 19/16 Q1018
  • 182300Z AUTO 00000KT CAVOK 20/17 Q1018
  • 182230Z AUTO 07002KT CAVOK 21/17 Q1018
  • 182200Z AUTO 08002KT CAVOK 20/17 Q1018
  • 182130Z AUTO 00000KT CAVOK 21/18 Q1018
  • 182100Z AUTO 09002KT CAVOK 21/17 Q1018
  • 182030Z AUTO 00000KT CAVOK 22/17 Q1018
  • 182000Z AUTO VRB01KT 9999 -RA NSC 23/17 Q1018
  • 181930Z AUTO 36003KT CAVOK 24/18 Q1018

Prévision TAF périmée.



MET'MAP, la Météo Aéronautique d'un coup d'oeil ! - Copyright ORBIFLY Décembre 2007 - Disclaimer

ORBIFLY MET'MAP TEAM :

Programmation & Développement : Alexandra Zaïnal
Sur une idée originale de : Baudouin d'Aumeries
Soutien technique & logistique : Manuel Goepfert
Assistance : Marc-Olivier Méhu




SOURCES & CREDITS :

   NOAA